createdAt,value
2018-01-16T00:00:26.880Z,990.56
2018-01-16T00:01:25.297Z,990.61
2018-01-16T00:02:25.295Z,990.60
2018-01-16T00:03:25.332Z,990.58
2018-01-16T00:04:25.634Z,990.63
2018-01-16T00:05:25.449Z,990.65
2018-01-16T00:06:25.368Z,990.61
2018-01-16T00:07:26.218Z,990.66
2018-01-16T00:08:25.268Z,990.68
2018-01-16T00:09:25.250Z,990.66
2018-01-16T00:10:25.383Z,990.70
2018-01-16T00:11:28.383Z,990.69
2018-01-16T00:12:25.151Z,990.71
2018-01-16T00:13:25.173Z,990.78
2018-01-16T00:14:25.210Z,990.76
2018-01-16T00:15:25.905Z,990.86
2018-01-16T00:16:33.498Z,990.79
2018-01-16T00:35:59.954Z,991.04
2018-01-16T00:37:00.467Z,990.96
2018-01-16T00:48:38.095Z,990.98
2018-01-16T01:02:39.980Z,991.04
2018-01-16T04:57:02.258Z,988.65
2018-01-16T04:59:48.566Z,988.64
2018-01-16T05:00:53.418Z,988.63
2018-01-16T05:01:46.011Z,988.64
2018-01-16T05:02:45.932Z,988.66
2018-01-16T05:33:23.018Z,988.53
2018-01-16T05:35:42.957Z,988.46
2018-01-16T05:36:39.779Z,988.47
2018-01-16T05:37:28.314Z,988.50
2018-01-16T05:38:32.791Z,988.52
2018-01-16T05:39:28.394Z,988.49
2018-01-16T05:40:28.844Z,988.48
2018-01-16T05:41:29.806Z,988.45
2018-01-16T05:43:03.021Z,988.37
2018-01-16T05:43:28.438Z,988.40
2018-01-16T05:44:29.280Z,988.40
2018-01-16T05:45:32.311Z,988.39
2018-01-16T05:46:29.271Z,988.37
2018-01-16T05:47:28.150Z,988.37
2018-01-16T06:01:52.892Z,988.43
2018-01-16T06:03:15.353Z,988.45
2018-01-16T06:04:12.322Z,988.43
2018-01-16T06:05:12.236Z,988.47
2018-01-16T06:06:13.345Z,988.46
2018-01-16T06:07:12.210Z,988.45
2018-01-16T06:08:12.403Z,988.42
2018-01-16T06:09:18.683Z,988.40
2018-01-16T06:10:12.853Z,988.45
2018-01-16T06:11:12.369Z,988.42
2018-01-16T06:12:15.131Z,988.51
2018-01-16T06:13:12.102Z,988.51
2018-01-16T06:14:12.111Z,988.57
2018-01-16T06:15:12.517Z,988.47
2018-01-16T06:16:12.269Z,988.51
2018-01-16T06:17:12.412Z,988.51
2018-01-16T06:18:12.922Z,988.53
2018-01-16T06:19:12.075Z,988.53
2018-01-16T06:20:11.977Z,988.58
2018-01-16T06:21:11.981Z,988.56
2018-01-16T06:22:12.857Z,988.55
2018-01-16T06:23:11.937Z,988.56
2018-01-16T06:24:11.896Z,988.49
2018-01-16T06:25:11.880Z,988.66
2018-01-16T06:26:11.864Z,988.43
2018-01-16T06:27:11.853Z,988.42
2018-01-16T06:28:12.474Z,988.49
2018-01-16T06:29:11.821Z,988.49
2018-01-16T06:30:11.811Z,988.37
2018-01-16T06:31:11.808Z,988.40
2018-01-16T06:32:11.775Z,988.37
2018-01-16T06:33:11.787Z,988.38
2018-01-16T06:34:32.752Z,988.33
2018-01-16T06:35:11.877Z,988.36
2018-01-16T06:36:11.716Z,988.32
2018-01-16T06:37:11.709Z,988.33
2018-01-16T06:38:11.699Z,988.34
2018-01-16T06:39:11.710Z,988.40
2018-01-16T06:40:11.656Z,988.41
2018-01-16T06:41:11.690Z,988.44
2018-01-16T06:42:11.643Z,988.47
2018-01-16T06:43:11.739Z,988.38
2018-01-16T06:44:11.593Z,988.37
2018-01-16T06:45:11.633Z,988.34
2018-01-16T06:46:11.569Z,988.31
2018-01-16T06:47:11.564Z,988.32
2018-01-16T06:48:11.530Z,988.33
2018-01-16T06:49:11.525Z,988.38
2018-01-16T06:50:11.534Z,988.30
2018-01-16T06:51:11.660Z,988.37
2018-01-16T06:52:32.517Z,988.39
2018-01-16T06:53:11.454Z,988.36
2018-01-16T06:54:11.438Z,988.35
2018-01-16T06:55:12.950Z,988.37
2018-01-16T07:02:18.632Z,988.30
2018-01-16T07:03:29.247Z,988.29
2018-01-16T07:04:13.871Z,988.28
2018-01-16T07:05:16.184Z,988.31
2018-01-16T07:09:54.278Z,988.22
2018-01-16T07:10:30.837Z,988.18
2018-01-16T07:11:49.605Z,988.23
2018-01-16T07:12:37.244Z,988.22
2018-01-16T07:13:33.966Z,988.19
2018-01-16T07:14:34.623Z,988.23
2018-01-16T07:15:43.146Z,988.25
2018-01-16T07:16:31.238Z,988.27
2018-01-16T07:17:30.830Z,988.14
2018-01-16T07:18:31.807Z,988.22
2018-01-16T08:10:34.960Z,988.29
2018-01-16T08:14:22.190Z,988.29
2018-01-16T08:15:20.456Z,988.35
2018-01-16T08:16:20.362Z,988.35
2018-01-16T08:17:21.307Z,988.35
2018-01-16T08:18:21.204Z,988.46
2018-01-16T08:19:22.203Z,988.36
2018-01-16T08:20:21.193Z,988.39
2018-01-16T08:21:21.692Z,988.36
2018-01-16T08:22:20.244Z,988.40
2018-01-16T08:23:20.428Z,988.33
2018-01-16T09:05:56.247Z,988.57
2018-01-16T09:06:58.035Z,988.47
2018-01-16T09:07:56.203Z,988.53
2018-01-16T09:08:56.202Z,988.55
2018-01-16T09:09:56.152Z,988.58
2018-01-16T09:10:56.166Z,988.61
2018-01-16T09:11:56.169Z,988.60
2018-01-16T09:12:56.106Z,988.62
2018-01-16T09:13:56.091Z,988.72
2018-01-16T09:14:56.071Z,988.83
2018-01-16T09:15:56.071Z,989.04
2018-01-16T09:16:56.038Z,989.04
2018-01-16T09:17:56.027Z,989.00
2018-01-16T09:18:56.022Z,988.80
2018-01-16T09:19:56.006Z,988.72
2018-01-16T09:20:55.982Z,988.67
2018-01-16T09:21:55.982Z,988.56
2018-01-16T09:22:55.949Z,988.58
2018-01-16T09:23:55.928Z,988.54
2018-01-16T09:24:55.924Z,988.50
2018-01-16T09:25:55.927Z,988.63
2018-01-16T09:26:55.896Z,988.64
2018-01-16T09:27:55.877Z,988.65
2018-01-16T09:28:55.852Z,988.94
2018-01-16T09:29:55.848Z,989.12
2018-01-16T09:30:55.839Z,989.20
2018-01-16T09:31:55.845Z,989.30
2018-01-16T09:51:31.467Z,989.45
2018-01-16T09:52:43.633Z,989.48
2018-01-16T10:06:08.338Z,990.02
2018-01-16T10:12:25.593Z,990.15
2018-01-16T10:13:04.112Z,990.24
2018-01-16T10:17:37.072Z,990.29
2018-01-16T10:17:40.721Z,990.31
2018-01-16T10:19:18.039Z,990.38
2018-01-16T10:20:05.864Z,990.31
2018-01-16T10:20:42.335Z,990.30
2018-01-16T10:21:42.837Z,990.23
2018-01-16T10:22:40.866Z,990.07
2018-01-16T10:23:37.993Z,990.03
2018-01-16T10:24:38.338Z,990.01
2018-01-16T10:25:37.516Z,990.10
2018-01-16T10:26:38.212Z,990.16
2018-01-16T10:27:37.625Z,990.16
2018-01-16T10:28:37.727Z,990.17
2018-01-16T10:29:38.510Z,990.17
2018-01-16T10:30:37.570Z,990.12
2018-01-16T10:31:38.337Z,990.12
2018-01-16T10:32:38.857Z,990.13
2018-01-16T10:33:37.920Z,990.12
2018-01-16T10:34:37.835Z,990.14
2018-01-16T10:35:37.448Z,990.15
2018-01-16T10:36:37.393Z,990.21
2018-01-16T10:37:37.405Z,990.24
2018-01-16T10:38:38.336Z,990.21
2018-01-16T10:39:37.839Z,990.21
2018-01-16T10:40:37.250Z,990.20
2018-01-16T10:41:37.969Z,990.20
2018-01-16T10:42:41.871Z,990.17
2018-01-16T10:43:51.588Z,990.22
2018-01-16T12:18:53.100Z,991.22
2018-01-16T12:19:33.585Z,991.21
2018-01-16T12:21:49.978Z,991.13
2018-01-16T12:22:52.333Z,991.11
2018-01-16T12:25:30.629Z,991.16
2018-01-16T12:26:42.535Z,991.16
2018-01-16T12:27:34.139Z,991.11
2018-01-16T12:47:47.338Z,991.05
2018-01-16T12:48:36.969Z,991.10
2018-01-16T12:49:36.434Z,991.07
2018-01-16T12:53:09.961Z,990.80
2018-01-16T12:54:12.636Z,990.83
2018-01-16T12:55:08.327Z,990.81
2018-01-16T12:56:11.438Z,990.85
2018-01-16T12:57:09.431Z,990.84
2018-01-16T12:58:08.513Z,990.73
2018-01-16T12:59:08.207Z,991.05
2018-01-16T13:00:08.219Z,991.17
2018-01-16T13:01:08.178Z,990.95
2018-01-16T13:02:08.182Z,990.96
2018-01-16T13:03:08.178Z,991.02
2018-01-16T13:04:08.130Z,991.14
2018-01-16T13:05:08.145Z,991.12
2018-01-16T13:06:08.096Z,991.16
2018-01-16T13:07:08.076Z,991.06
2018-01-16T13:08:08.101Z,991.20
2018-01-16T13:09:08.056Z,991.09
2018-01-16T13:10:08.022Z,991.14
2018-01-16T13:11:08.002Z,991.06
2018-01-16T13:12:07.990Z,991.00
2018-01-16T13:13:08.002Z,991.04
2018-01-16T13:14:07.983Z,991.02
2018-01-16T13:15:07.976Z,991.07
2018-01-16T13:16:07.925Z,991.09
2018-01-16T13:17:07.943Z,991.23
2018-01-16T13:18:07.925Z,991.13
2018-01-16T13:19:07.923Z,991.11
2018-01-16T13:20:07.917Z,991.29
2018-01-16T13:21:07.873Z,991.06
2018-01-16T13:22:07.840Z,991.00
2018-01-16T13:23:07.845Z,990.99
2018-01-16T13:24:07.857Z,990.98
2018-01-16T13:25:07.821Z,990.91
2018-01-16T13:26:07.774Z,990.98
2018-01-16T13:27:07.760Z,991.06
2018-01-16T13:28:07.754Z,991.05
2018-01-16T13:29:07.732Z,991.08
2018-01-16T13:30:07.749Z,991.04
2018-01-16T13:31:07.713Z,991.10
2018-01-16T13:32:07.697Z,991.16
2018-01-16T13:33:07.685Z,991.10
2018-01-16T13:34:07.707Z,991.35
2018-01-16T13:35:07.653Z,991.42
2018-01-16T13:36:07.621Z,991.26
2018-01-16T13:37:07.628Z,991.15
2018-01-16T13:38:07.598Z,991.06
2018-01-16T13:39:07.594Z,991.09
2018-01-16T13:40:07.554Z,991.09
2018-01-16T13:41:07.576Z,991.10
2018-01-16T13:42:07.521Z,991.08
2018-01-16T13:43:07.512Z,991.05
2018-01-16T13:44:07.535Z,991.06
2018-01-16T13:45:07.474Z,991.12
2018-01-16T13:46:07.468Z,991.09
2018-01-16T13:47:07.471Z,991.04
2018-01-16T13:48:07.448Z,991.04
2018-01-16T13:49:07.449Z,991.06
2018-01-16T13:50:07.428Z,991.10
2018-01-16T13:51:07.417Z,991.19
2018-01-16T13:52:07.401Z,991.26
2018-01-16T13:53:07.383Z,991.26
2018-01-16T13:54:07.341Z,991.22
2018-01-16T13:55:07.327Z,991.15
2018-01-16T13:56:07.353Z,991.18
2018-01-16T13:57:07.311Z,991.20
2018-01-16T13:58:07.337Z,991.29
2018-01-16T13:59:07.259Z,991.26
2018-01-16T14:00:07.614Z,991.33
2018-01-16T14:01:07.254Z,991.31
2018-01-16T14:02:07.297Z,991.27
2018-01-16T14:03:07.216Z,991.26
2018-01-16T14:04:07.187Z,991.27
2018-01-16T14:05:07.213Z,991.24
2018-01-16T14:06:07.171Z,991.22
2018-01-16T14:07:07.151Z,991.28
2018-01-16T14:08:07.288Z,991.31
2018-01-16T14:09:07.125Z,991.32
2018-01-16T14:10:08.075Z,991.39
2018-01-16T14:11:10.443Z,991.40
2018-01-16T14:12:11.037Z,991.50
2018-01-16T14:13:07.089Z,991.49
2018-01-16T14:14:07.044Z,991.44
2018-01-16T14:15:07.026Z,991.43
2018-01-16T14:16:07.059Z,991.37
2018-01-16T14:17:07.006Z,991.23
2018-01-16T14:18:07.078Z,991.25
2018-01-16T14:19:06.973Z,991.24
2018-01-16T14:20:06.944Z,991.25
2018-01-16T14:21:06.945Z,991.27
2018-01-16T14:22:06.931Z,991.25
2018-01-16T14:23:07.516Z,991.26
2018-01-16T14:24:07.943Z,991.26
2018-01-16T14:25:07.000Z,991.25
2018-01-16T14:26:06.930Z,991.32
2018-01-16T14:27:06.870Z,991.30
2018-01-16T14:28:06.838Z,991.38
2018-01-16T14:29:08.151Z,991.39
2018-01-16T14:30:07.467Z,991.46
2018-01-16T14:31:07.541Z,991.43
2018-01-16T14:32:06.831Z,991.50
2018-01-16T14:33:08.491Z,991.67
2018-01-16T14:35:37.950Z,991.73
2018-01-16T14:36:06.701Z,991.67
2018-01-16T14:37:06.685Z,991.68
2018-01-16T14:38:07.036Z,991.62
2018-01-16T14:39:06.764Z,991.65
2018-01-16T14:40:06.632Z,991.60
2018-01-16T14:41:06.619Z,991.60
2018-01-16T14:42:06.673Z,991.69
2018-01-16T14:43:06.869Z,991.63
2018-01-16T14:44:06.703Z,991.65
2018-01-16T14:45:08.475Z,991.48
2018-01-16T14:46:09.568Z,991.38
2018-01-16T14:47:06.634Z,991.25
2018-01-16T14:48:07.544Z,991.32
2018-01-16T14:49:07.570Z,991.43
2018-01-16T14:50:07.368Z,991.42
2018-01-16T14:51:06.482Z,991.36
2018-01-16T14:52:06.550Z,991.41
2018-01-16T14:53:06.949Z,991.39
2018-01-16T14:54:06.530Z,991.49
2018-01-16T14:55:06.668Z,991.44
2018-01-16T14:56:07.449Z,991.41
2018-01-16T14:57:06.700Z,991.32
2018-01-16T14:58:08.453Z,991.34
2018-01-16T14:59:06.956Z,991.37
2018-01-16T15:00:06.957Z,991.42
2018-01-16T15:01:07.449Z,991.42
2018-01-16T15:02:06.378Z,991.37
2018-01-16T15:03:06.311Z,991.35
2018-01-16T15:04:06.247Z,991.37
2018-01-16T15:05:27.274Z,991.36
2018-01-16T15:06:06.244Z,991.36
2018-01-16T15:07:06.239Z,991.35
2018-01-16T15:08:06.218Z,991.37
2018-01-16T15:09:06.227Z,991.33
2018-01-16T15:10:14.965Z,991.35
2018-01-16T15:11:10.458Z,991.39
2018-01-16T15:12:07.142Z,991.37
2018-01-16T15:13:07.953Z,991.41
2018-01-16T15:14:09.390Z,991.43
2018-01-16T15:15:14.466Z,991.47
2018-01-16T15:16:10.950Z,991.48
2018-01-16T15:17:16.308Z,991.55
2018-01-16T15:18:12.468Z,991.60
2018-01-16T15:19:54.954Z,991.61
2018-01-16T15:20:34.009Z,991.65
2018-01-16T15:21:18.472Z,991.60
2018-01-16T15:22:10.556Z,991.65
2018-01-16T15:23:09.464Z,991.64
2018-01-16T15:24:10.523Z,991.65
2018-01-16T15:25:06.561Z,991.70
2018-01-16T15:26:05.992Z,991.80
2018-01-16T15:27:09.585Z,991.83
2018-01-16T15:28:05.903Z,991.95
2018-01-16T15:29:05.893Z,991.90
2018-01-16T15:31:41.752Z,991.91
2018-01-16T15:32:05.907Z,991.83
2018-01-16T15:33:07.453Z,991.86
2018-01-16T15:34:06.452Z,991.87
2018-01-16T15:35:05.786Z,991.88
2018-01-16T15:36:06.963Z,991.82
2018-01-16T15:37:06.704Z,991.81
2018-01-16T15:38:11.464Z,991.80
2018-01-16T15:39:05.762Z,991.81
2018-01-16T15:40:05.938Z,991.79
2018-01-16T15:41:06.953Z,991.82
2018-01-16T15:42:05.713Z,991.83
2018-01-16T15:43:05.698Z,991.90
2018-01-16T15:44:06.995Z,991.88
2018-01-16T15:45:07.956Z,991.92
2018-01-16T15:46:06.456Z,991.86
2018-01-16T15:47:06.644Z,991.86
2018-01-16T15:48:07.456Z,991.81
2018-01-16T15:49:06.491Z,991.78
2018-01-16T15:50:05.652Z,991.84
2018-01-16T15:51:05.644Z,991.84
2018-01-16T15:52:06.478Z,991.87
2018-01-16T15:53:06.456Z,991.93
2018-01-16T15:54:06.018Z,991.96
2018-01-16T15:55:05.988Z,991.98
2018-01-16T15:56:06.122Z,991.99
2018-01-16T15:57:05.516Z,991.96
2018-01-16T15:58:05.516Z,991.92
2018-01-16T15:59:26.487Z,991.92
2018-01-16T16:00:05.487Z,991.94
2018-01-16T16:01:05.375Z,991.92
2018-01-16T16:02:05.959Z,991.92
2018-01-16T16:03:05.966Z,991.95
2018-01-16T16:04:05.512Z,991.95
2018-01-16T16:05:05.382Z,991.88
2018-01-16T16:06:05.960Z,991.92
2018-01-16T16:07:06.956Z,991.88
2018-01-16T16:08:05.345Z,991.88
2018-01-16T16:09:05.252Z,991.86
2018-01-16T16:10:05.958Z,991.83
2018-01-16T16:11:05.224Z,991.76
2018-01-16T16:12:05.216Z,991.74
2018-01-16T16:13:05.178Z,991.76
2018-01-16T16:14:05.176Z,991.75
2018-01-16T16:15:05.296Z,991.72
2018-01-16T16:16:05.111Z,991.72
2018-01-16T16:17:05.209Z,991.72
2018-01-16T16:18:05.112Z,991.69
2018-01-16T16:19:05.130Z,991.70
2018-01-16T16:20:05.082Z,991.72
2018-01-16T16:21:05.021Z,991.78
2018-01-16T16:22:05.028Z,991.97
2018-01-16T16:23:04.980Z,992.28
2018-01-16T16:24:05.006Z,992.39
2018-01-16T16:25:04.974Z,992.45
2018-01-16T16:26:04.986Z,992.34
2018-01-16T16:27:05.465Z,992.35
2018-01-16T16:28:05.133Z,992.40
2018-01-16T16:29:04.864Z,992.39
2018-01-16T16:30:04.885Z,992.37
2018-01-16T16:31:09.966Z,992.33
2018-01-16T16:32:05.910Z,992.28
2018-01-16T16:33:06.463Z,992.19
2018-01-16T16:34:04.886Z,992.19
2018-01-16T16:35:04.976Z,992.10
2018-01-16T16:36:04.875Z,992.10
2018-01-16T16:37:04.767Z,992.02
2018-01-16T16:38:04.796Z,992.02
2018-01-16T16:39:04.815Z,991.90
2018-01-16T16:40:05.462Z,991.82
2018-01-16T16:41:04.744Z,991.82
2018-01-16T16:42:04.789Z,991.80
2018-01-16T16:43:04.728Z,991.79
2018-01-16T16:44:04.903Z,991.83
2018-01-16T16:45:04.872Z,991.81
2018-01-16T16:46:04.611Z,991.71
2018-01-16T16:47:04.590Z,991.73
2018-01-16T16:48:04.578Z,991.76
2018-01-16T16:49:04.540Z,991.74
2018-01-16T16:50:04.603Z,991.78
2018-01-16T16:51:04.702Z,991.77
2018-01-16T16:52:04.535Z,991.76
2018-01-16T16:53:04.575Z,991.80
2018-01-16T16:54:04.470Z,991.85
2018-01-16T16:55:04.529Z,991.81
2018-01-16T16:56:04.579Z,991.84
2018-01-16T16:57:04.419Z,991.89
2018-01-16T16:58:04.964Z,991.86
2018-01-16T16:59:04.382Z,991.95
2018-01-16T17:00:04.651Z,991.93
2018-01-16T17:01:06.489Z,991.91
2018-01-16T17:02:04.435Z,991.92
2018-01-16T17:03:04.993Z,991.94
2018-01-16T17:04:06.442Z,991.92
2018-01-16T17:05:05.223Z,991.97
2018-01-16T17:06:06.565Z,991.97
2018-01-16T17:07:05.110Z,991.94
2018-01-16T17:08:04.329Z,991.92
2018-01-16T17:09:04.994Z,991.92
2018-01-16T17:10:05.271Z,991.88
2018-01-16T17:11:07.480Z,991.91
2018-01-16T17:12:04.219Z,991.88
2018-01-16T17:13:04.521Z,991.93
2018-01-16T17:14:06.992Z,991.90
2018-01-16T17:15:06.968Z,991.88
2018-01-16T17:16:06.060Z,991.84
2018-01-16T17:17:05.764Z,991.78
2018-01-16T17:18:05.221Z,991.76
2018-01-16T17:19:05.966Z,991.71
2018-01-16T17:20:05.469Z,991.73
2018-01-16T17:21:04.424Z,991.73
2018-01-16T17:22:06.467Z,991.71
2018-01-16T17:23:05.468Z,991.67
2018-01-16T17:24:04.032Z,991.63
2018-01-16T17:25:04.474Z,991.65
2018-01-16T17:26:04.550Z,991.68
2018-01-16T17:27:04.471Z,991.69
2018-01-16T17:28:03.957Z,991.68
2018-01-16T17:29:13.002Z,991.66
2018-01-16T17:30:07.503Z,991.66
2018-01-16T17:31:05.467Z,991.62
2018-01-16T17:32:06.467Z,991.58
2018-01-16T17:33:03.858Z,991.61
2018-01-16T17:34:03.836Z,991.57
2018-01-16T17:35:04.968Z,991.56
2018-01-16T17:36:04.968Z,991.55
2018-01-16T17:37:03.746Z,991.55
2018-01-16T17:38:03.826Z,991.47
2018-01-16T17:39:04.700Z,991.48
2018-01-16T17:40:03.721Z,991.49
2018-01-16T17:41:03.759Z,991.46
2018-01-16T17:42:03.640Z,991.44
2018-01-16T17:43:03.668Z,991.44
2018-01-16T17:44:03.637Z,991.46
2018-01-16T17:45:03.651Z,991.42
2018-01-16T17:46:03.614Z,991.40
2018-01-16T17:47:03.592Z,991.38
2018-01-16T17:48:03.529Z,991.43
2018-01-16T17:49:04.511Z,991.40
2018-01-16T17:50:03.523Z,991.39
2018-01-16T17:51:03.489Z,991.39
2018-01-16T17:52:04.470Z,991.32
2018-01-16T17:53:03.473Z,991.34
2018-01-16T17:54:03.429Z,991.33
2018-01-16T17:55:03.484Z,991.31
2018-01-16T17:56:03.426Z,991.30
2018-01-16T17:57:03.435Z,991.29
2018-01-16T17:58:03.432Z,991.30
2018-01-16T17:59:03.386Z,991.28
2018-01-16T18:00:03.329Z,991.30
2018-01-16T18:01:03.429Z,991.29
2018-01-16T18:02:03.392Z,991.32
2018-01-16T18:03:03.329Z,991.33
2018-01-16T18:04:03.281Z,991.34
2018-01-16T18:05:03.265Z,991.35
2018-01-16T18:06:03.260Z,991.31
2018-01-16T18:07:03.266Z,991.34
2018-01-16T18:08:03.252Z,991.31
2018-01-16T18:09:03.255Z,991.31
2018-01-16T18:10:03.226Z,991.35
2018-01-16T18:11:03.152Z,991.34
2018-01-16T18:12:03.192Z,991.38
2018-01-16T18:13:03.102Z,991.41
2018-01-16T18:14:03.091Z,991.42
2018-01-16T18:15:03.101Z,991.42
2018-01-16T18:16:03.102Z,991.43
2018-01-16T18:17:03.042Z,991.43
2018-01-16T18:18:03.027Z,991.41
2018-01-16T18:19:03.004Z,991.46
2018-01-16T18:20:02.988Z,991.51
2018-01-16T18:21:03.004Z,991.48
2018-01-16T18:22:02.944Z,991.55
2018-01-16T18:23:02.952Z,991.51
2018-01-16T18:24:02.917Z,991.47
2018-01-16T18:25:02.897Z,991.47
2018-01-16T18:26:02.891Z,991.48
2018-01-16T18:27:02.858Z,991.36
2018-01-16T18:28:02.838Z,991.43
2018-01-16T18:29:02.824Z,991.34
2018-01-16T18:30:02.840Z,991.39
2018-01-16T18:31:02.802Z,991.43
2018-01-16T18:32:02.784Z,991.42
2018-01-16T18:33:02.750Z,991.39
2018-01-16T18:34:02.740Z,991.35
2018-01-16T18:35:02.723Z,991.38
2018-01-16T18:36:02.828Z,991.38
2018-01-16T18:37:02.741Z,991.37
2018-01-16T18:38:02.696Z,991.35
2018-01-16T18:39:02.685Z,991.34
2018-01-16T18:40:02.697Z,991.33
2018-01-16T18:41:02.691Z,991.31
2018-01-16T18:42:02.649Z,991.28
2018-01-16T18:43:02.588Z,991.30
2018-01-16T18:44:02.641Z,991.27
2018-01-16T18:45:02.602Z,991.24
2018-01-16T18:46:02.541Z,991.25
2018-01-16T18:47:02.547Z,991.30
2018-01-16T18:48:02.537Z,991.29
2018-01-16T18:49:02.510Z,991.26
2018-01-16T18:50:02.494Z,991.22
2018-01-16T18:51:02.484Z,991.26
2018-01-16T18:52:02.486Z,991.26
2018-01-16T18:53:02.463Z,991.26
2018-01-16T18:54:02.981Z,991.23
2018-01-16T18:55:02.382Z,991.23
2018-01-16T18:56:02.436Z,991.21
2018-01-16T18:57:02.416Z,991.20
2018-01-16T18:58:02.333Z,991.24
2018-01-16T18:59:02.978Z,991.24
2018-01-16T19:00:02.361Z,991.24
2018-01-16T19:01:02.360Z,991.30
2018-01-16T19:02:02.333Z,991.32
2018-01-16T19:03:02.296Z,991.31
2018-01-16T19:04:02.334Z,991.35
2018-01-16T19:05:02.253Z,991.38
2018-01-16T19:06:02.225Z,991.35
2018-01-16T19:07:02.234Z,991.37
2018-01-16T19:08:02.281Z,991.37
2018-01-16T19:09:02.242Z,991.39
2018-01-16T19:10:02.154Z,991.35
2018-01-16T19:11:02.117Z,991.37
2018-01-16T19:12:02.144Z,991.31
2018-01-16T19:13:02.111Z,991.35
2018-01-16T19:14:02.103Z,991.37
2018-01-16T19:15:02.046Z,991.36
2018-01-16T19:16:02.022Z,991.35
2018-01-16T19:17:02.107Z,991.39
2018-01-16T19:18:02.024Z,991.38
2018-01-16T19:19:02.008Z,991.35
2018-01-16T19:20:02.015Z,991.34
2018-01-16T19:21:01.950Z,991.33
2018-01-16T19:22:01.941Z,991.31
2018-01-16T19:23:01.950Z,991.29
2018-01-16T19:24:01.925Z,991.24
2018-01-16T19:25:01.905Z,991.26
2018-01-16T19:26:01.893Z,991.28
2018-01-16T19:27:01.874Z,991.28
2018-01-16T19:28:01.832Z,991.27
2018-01-16T19:29:01.801Z,991.23
2018-01-16T19:30:01.821Z,991.17
2018-01-16T19:31:01.796Z,991.23
2018-01-16T19:32:01.772Z,991.18
2018-01-16T19:33:01.726Z,991.16
2018-01-16T19:34:01.735Z,991.20
2018-01-16T19:35:01.745Z,991.18
2018-01-16T19:36:01.712Z,991.25
2018-01-16T19:37:01.706Z,991.24
2018-01-16T19:38:01.689Z,991.29
2018-01-16T19:39:01.625Z,991.25
2018-01-16T19:40:01.682Z,991.30
2018-01-16T19:41:01.619Z,991.30
2018-01-16T19:42:01.609Z,991.30
2018-01-16T19:43:01.593Z,991.29
2018-01-16T19:44:01.577Z,991.29
2018-01-16T19:45:01.577Z,991.28
2018-01-16T19:46:01.562Z,991.23
2018-01-16T19:47:01.504Z,991.16
2018-01-16T19:48:01.506Z,991.12
2018-01-16T19:49:01.477Z,991.10
2018-01-16T19:50:01.473Z,991.10
2018-01-16T19:51:01.459Z,991.08
2018-01-16T19:52:01.459Z,991.11
2018-01-16T19:53:01.385Z,991.12
2018-01-16T19:54:01.400Z,991.10
2018-01-16T19:55:01.359Z,991.10
2018-01-16T19:56:01.358Z,991.09
2018-01-16T19:57:01.346Z,991.10
2018-01-16T19:58:04.079Z,991.06
2018-01-16T19:59:01.349Z,991.03
2018-01-16T20:00:01.289Z,991.01
2018-01-16T20:01:01.289Z,991.01
2018-01-16T20:02:31.588Z,990.93
2018-01-16T20:03:31.556Z,990.96
2018-01-16T20:04:31.544Z,990.94
2018-01-16T20:05:31.522Z,990.96
2018-01-16T20:06:31.502Z,990.94
2018-01-16T20:07:31.499Z,990.96
2018-01-16T20:08:31.463Z,990.98
2018-01-16T20:09:31.444Z,991.04
2018-01-16T20:10:31.446Z,991.08
2018-01-16T20:11:31.411Z,991.02
2018-01-16T20:12:31.404Z,991.00
2018-01-16T20:13:31.372Z,990.96
2018-01-16T20:14:31.355Z,990.93
2018-01-16T20:15:31.351Z,990.93
2018-01-16T20:16:31.322Z,990.92
2018-01-16T20:17:31.299Z,990.89
2018-01-16T20:18:31.279Z,990.86
2018-01-16T20:19:31.260Z,990.84
2018-01-16T20:20:31.264Z,990.85
2018-01-16T20:21:31.226Z,990.86
2018-01-16T20:22:31.206Z,990.84
2018-01-16T20:23:31.187Z,990.83
2018-01-16T20:24:31.166Z,990.82
2018-01-16T20:25:31.159Z,990.82
2018-01-16T20:26:31.141Z,990.84
2018-01-16T20:27:31.109Z,990.84
2018-01-16T20:28:31.108Z,990.83
2018-01-16T20:29:31.071Z,990.80
2018-01-16T20:30:31.054Z,990.81
2018-01-16T20:31:31.037Z,990.83
2018-01-16T20:32:31.035Z,990.84
2018-01-16T20:33:30.992Z,990.80
2018-01-16T20:34:30.975Z,990.77
2018-01-16T20:35:30.955Z,990.81
2018-01-16T20:36:30.933Z,990.82
2018-01-16T20:37:30.936Z,990.78
2018-01-16T20:38:30.904Z,990.80
2018-01-16T20:39:30.877Z,990.81
2018-01-16T20:40:30.863Z,990.86
2018-01-16T20:41:30.860Z,990.84
2018-01-16T20:42:30.840Z,990.87
2018-01-16T20:43:30.805Z,990.90
2018-01-16T20:44:30.786Z,990.95
2018-01-16T20:45:30.767Z,990.89
2018-01-16T20:46:30.745Z,990.94
2018-01-16T20:47:30.726Z,990.90
2018-01-16T20:48:30.721Z,990.93
2018-01-16T20:49:30.692Z,990.92
2018-01-16T20:50:30.688Z,990.81
2018-01-16T20:51:30.652Z,990.84
2018-01-16T20:52:30.632Z,990.78
2018-01-16T20:53:30.615Z,990.75
2018-01-16T20:54:30.593Z,990.75
2018-01-16T20:55:30.588Z,990.71
2018-01-16T20:56:30.553Z,990.65
2018-01-16T20:57:30.536Z,990.69
2018-01-16T20:58:30.517Z,990.69
2018-01-16T20:59:30.563Z,990.68
2018-01-16T21:00:30.478Z,990.63
2018-01-16T21:01:30.462Z,990.64
2018-01-16T21:02:30.453Z,990.62
2018-01-16T21:03:30.426Z,990.62
2018-01-16T21:04:30.418Z,990.63
2018-01-16T21:05:30.385Z,990.65
2018-01-16T21:06:30.382Z,990.63
2018-01-16T21:07:30.343Z,990.66
2018-01-16T21:08:30.325Z,990.64
2018-01-16T21:09:30.324Z,990.62
2018-01-16T21:10:30.302Z,990.65
2018-01-16T21:11:30.269Z,990.61
2018-01-16T21:12:30.251Z,990.57
2018-01-16T21:13:30.231Z,990.58
2018-01-16T21:14:30.212Z,990.58
2018-01-16T21:15:30.205Z,990.52
2018-01-16T21:16:30.173Z,990.49
2018-01-16T21:17:30.162Z,990.51
2018-01-16T21:18:30.222Z,990.50
2018-01-16T21:19:30.114Z,990.52
2018-01-16T21:20:30.112Z,990.55
2018-01-16T21:21:30.077Z,990.53
2018-01-16T21:22:30.056Z,990.50
2018-01-16T21:23:30.053Z,990.46
2018-01-16T21:24:30.019Z,990.49
2018-01-16T21:25:30.002Z,990.45
2018-01-16T21:26:29.982Z,990.44
2018-01-16T21:27:29.960Z,990.45
2018-01-16T21:28:29.940Z,990.43
2018-01-16T21:29:29.935Z,990.46
2018-01-16T21:30:29.903Z,990.50
2018-01-16T21:31:29.886Z,990.51
2018-01-16T21:32:29.870Z,990.48
2018-01-16T21:33:29.849Z,990.49
2018-01-16T21:34:29.852Z,990.48
2018-01-16T21:35:29.811Z,990.46
2018-01-16T21:36:29.787Z,990.47
2018-01-16T21:37:29.772Z,990.48
2018-01-16T21:38:29.753Z,990.47
2018-01-16T21:39:29.749Z,990.45
2018-01-16T21:40:29.710Z,990.48
2018-01-16T21:41:29.697Z,990.48
2018-01-16T21:42:29.677Z,990.51
2018-01-16T21:43:29.673Z,990.48
2018-01-16T21:44:29.636Z,990.50
2018-01-16T21:45:29.651Z,990.51
2018-01-16T21:46:29.622Z,990.47
2018-01-16T21:47:29.582Z,990.43
2018-01-16T21:48:29.557Z,990.46
2018-01-16T21:49:29.544Z,990.48
2018-01-16T21:50:29.524Z,990.45
2018-01-16T21:51:29.524Z,990.46
2018-01-16T21:52:29.486Z,990.46
2018-01-16T21:53:29.471Z,990.44
2018-01-16T21:54:29.455Z,990.42
2018-01-16T21:55:29.429Z,990.41
2018-01-16T21:56:29.411Z,990.38
2018-01-16T21:57:29.408Z,990.37
2018-01-16T21:58:29.402Z,990.36
2018-01-16T21:59:29.352Z,990.36
2018-01-16T22:00:29.336Z,990.30
2018-01-16T22:01:29.321Z,990.33
2018-01-16T22:02:29.299Z,990.31
2018-01-16T22:03:29.293Z,990.41
2018-01-16T22:04:29.254Z,990.36
2018-01-16T22:05:29.238Z,990.38
2018-01-16T22:06:29.220Z,990.35
2018-01-16T22:07:29.201Z,990.32
2018-01-16T22:08:29.180Z,990.32
2018-01-16T22:09:29.182Z,990.30
2018-01-16T22:10:29.152Z,990.29
2018-01-16T22:11:29.126Z,990.27
2018-01-16T22:12:29.102Z,990.24
2018-01-16T22:13:29.088Z,990.24
2018-01-16T22:14:29.080Z,990.22